sensor_id;sensor_type;location;lat;lon;timestamp;temperature;humidity
22290;DHT22;11313;50.116;8.424;2022-10-28T00:02:11;23.90;60.20
22290;DHT22;11313;50.116;8.424;2022-10-28T00:04:37;23.80;60.20
22290;DHT22;11313;50.116;8.424;2022-10-28T00:07:02;23.80;60.20
22290;DHT22;11313;50.116;8.424;2022-10-28T00:09:28;23.80;60.20
22290;DHT22;11313;50.116;8.424;2022-10-28T00:11:54;23.80;60.20
22290;DHT22;11313;50.116;8.424;2022-10-28T00:14:20;23.80;60.20
22290;DHT22;11313;50.116;8.424;2022-10-28T00:16:45;23.80;60.20
22290;DHT22;11313;50.116;8.424;2022-10-28T00:19:12;23.80;60.20
22290;DHT22;11313;50.116;8.424;2022-10-28T00:21:40;23.80;60.20
22290;DHT22;11313;50.116;8.424;2022-10-28T00:24:06;23.80;60.10
22290;DHT22;11313;50.116;8.424;2022-10-28T00:26:34;23.80;60.10
22290;DHT22;11313;50.116;8.424;2022-10-28T00:29:15;23.80;60.10
22290;DHT22;11313;50.116;8.424;2022-10-28T00:31:41;23.80;60.10
22290;DHT22;11313;50.116;8.424;2022-10-28T00:34:11;23.80;60.00
22290;DHT22;11313;50.116;8.424;2022-10-28T00:36:39;23.80;60.00
22290;DHT22;11313;50.116;8.424;2022-10-28T00:39:14;23.80;60.00
22290;DHT22;11313;50.116;8.424;2022-10-28T00:41:43;23.80;60.00
22290;DHT22;11313;50.116;8.424;2022-10-28T00:44:48;23.80;60.00
22290;DHT22;11313;50.116;8.424;2022-10-28T00:50:17;23.80;60.00
22290;DHT22;11313;50.116;8.424;2022-10-28T00:52:51;23.80;59.90
22290;DHT22;11313;50.116;8.424;2022-10-28T00:55:18;23.80;59.90
22290;DHT22;11313;50.116;8.424;2022-10-28T00:57:46;23.80;59.90
22290;DHT22;11313;50.116;8.424;2022-10-28T01:00:12;23.80;60.00
22290;DHT22;11313;50.116;8.424;2022-10-28T01:02:47;23.80;59.90
22290;DHT22;11313;50.116;8.424;2022-10-28T01:05:25;23.80;59.90
22290;DHT22;11313;50.116;8.424;2022-10-28T01:07:54;23.80;59.90
22290;DHT22;11313;50.116;8.424;2022-10-28T01:10:35;23.80;59.80
22290;DHT22;11313;50.116;8.424;2022-10-28T01:13:30;23.80;59.80
22290;DHT22;11313;50.116;8.424;2022-10-28T01:15:59;23.80;59.80
22290;DHT22;11313;50.116;8.424;2022-10-28T01:23:35;23.70;59.70
22290;DHT22;11313;50.116;8.424;2022-10-28T01:36:40;23.70;59.70
22290;DHT22;11313;50.116;8.424;2022-10-28T01:45:00;23.70;59.60
22290;DHT22;11313;50.116;8.424;2022-10-28T01:47:48;23.70;59.60
22290;DHT22;11313;50.116;8.424;2022-10-28T01:52:49;23.70;59.60
22290;DHT22;11313;50.116;8.424;2022-10-28T01:55:25;23.80;59.60
22290;DHT22;11313;50.116;8.424;2022-10-28T01:57:53;23.70;59.50
22290;DHT22;11313;50.116;8.424;2022-10-28T02:00:21;23.70;59.50
22290;DHT22;11313;50.116;8.424;2022-10-28T02:02:48;23.60;59.50
22290;DHT22;11313;50.116;8.424;2022-10-28T02:08:29;23.70;59.50
22290;DHT22;11313;50.116;8.424;2022-10-28T02:16:19;23.60;59.50
22290;DHT22;11313;50.116;8.424;2022-10-28T02:21:35;23.70;59.50
22290;DHT22;11313;50.116;8.424;2022-10-28T02:24:18;23.60;59.40
22290;DHT22;11313;50.116;8.424;2022-10-28T02:27:24;23.70;59.50
22290;DHT22;11313;50.116;8.424;2022-10-28T02:30:01;23.60;60.10
22290;DHT22;11313;50.116;8.424;2022-10-28T02:32:30;23.60;59.40
22290;DHT22;11313;50.116;8.424;2022-10-28T02:34:58;23.60;59.50
22290;DHT22;11313;50.116;8.424;2022-10-28T02:37:31;23.60;59.40
22290;DHT22;11313;50.116;8.424;2022-10-28T02:40:02;23.60;59.40
22290;DHT22;11313;50.116;8.424;2022-10-28T02:42:33;23.60;59.50
22290;DHT22;11313;50.116;8.424;2022-10-28T02:45:06;23.60;59.50
22290;DHT22;11313;50.116;8.424;2022-10-28T02:47:34;23.60;59.50
22290;DHT22;11313;50.116;8.424;2022-10-28T02:50:05;23.60;59.50
22290;DHT22;11313;50.116;8.424;2022-10-28T02:52:32;23.60;59.50
22290;DHT22;11313;50.116;8.424;2022-10-28T02:55:00;23.60;59.50
22290;DHT22;11313;50.116;8.424;2022-10-28T02:57:35;23.60;59.50
22290;DHT22;11313;50.116;8.424;2022-10-28T03:00:07;23.60;59.50
22290;DHT22;11313;50.116;8.424;2022-10-28T03:02:33;23.60;59.50
22290;DHT22;11313;50.116;8.424;2022-10-28T03:04:59;23.60;60.20
22290;DHT22;11313;50.116;8.424;2022-10-28T03:07:24;23.50;59.40
22290;DHT22;11313;50.116;8.424;2022-10-28T03:09:50;23.50;59.40
22290;DHT22;11313;50.116;8.424;2022-10-28T03:12:16;23.60;59.50
22290;DHT22;11313;50.116;8.424;2022-10-28T03:14:41;23.50;59.40
22290;DHT22;11313;50.116;8.424;2022-10-28T03:17:07;23.50;59.50
22290;DHT22;11313;50.116;8.424;2022-10-28T03:19:33;23.50;59.50
22290;DHT22;11313;50.116;8.424;2022-10-28T03:21:58;23.50;59.50
22290;DHT22;11313;50.116;8.424;2022-10-28T03:24:24;23.50;59.50
22290;DHT22;11313;50.116;8.424;2022-10-28T03:26:49;23.50;59.50
22290;DHT22;11313;50.116;8.424;2022-10-28T03:29:15;23.50;59.40
22290;DHT22;11313;50.116;8.424;2022-10-28T03:31:40;23.50;59.50
22290;DHT22;11313;50.116;8.424;2022-10-28T03:34:05;23.50;59.50
22290;DHT22;11313;50.116;8.424;2022-10-28T03:36:31;23.50;59.50
22290;DHT22;11313;50.116;8.424;2022-10-28T03:38:56;23.50;59.50
22290;DHT22;11313;50.116;8.424;2022-10-28T03:41:22;23.50;59.40
22290;DHT22;11313;50.116;8.424;2022-10-28T03:43:47;23.50;59.40
22290;DHT22;11313;50.116;8.424;2022-10-28T03:46:13;23.50;59.40
22290;DHT22;11313;50.116;8.424;2022-10-28T03:48:38;23.50;59.40
22290;DHT22;11313;50.116;8.424;2022-10-28T03:51:04;23.50;59.40
22290;DHT22;11313;50.116;8.424;2022-10-28T03:53:30;23.50;59.40
22290;DHT22;11313;50.116;8.424;2022-10-28T03:55:58;23.50;59.50
22290;DHT22;11313;50.116;8.424;2022-10-28T03:58:24;23.50;59.50
22290;DHT22;11313;50.116;8.424;2022-10-28T04:00:51;23.40;59.40
22290;DHT22;11313;50.116;8.424;2022-10-28T04:03:19;23.50;59.50
22290;DHT22;11313;50.116;8.424;2022-10-28T04:05:45;23.40;59.50
22290;DHT22;11313;50.116;8.424;2022-10-28T04:08:13;23.40;59.40
22290;DHT22;11313;50.116;8.424;2022-10-28T04:10:38;23.50;59.50
22290;DHT22;11313;50.116;8.424;2022-10-28T04:13:05;23.40;59.40
22290;DHT22;11313;50.116;8.424;2022-10-28T04:15:31;23.50;59.50
22290;DHT22;11313;50.116;8.424;2022-10-28T04:17:57;23.50;59.50
22290;DHT22;11313;50.116;8.424;2022-10-28T04:20:23;23.40;59.50
22290;DHT22;11313;50.116;8.424;2022-10-28T04:22:48;23.40;59.50
22290;DHT22;11313;50.116;8.424;2022-10-28T04:25:14;23.40;59.40
22290;DHT22;11313;50.116;8.424;2022-10-28T04:27:39;23.40;59.40
22290;DHT22;11313;50.116;8.424;2022-10-28T04:30:05;23.40;59.40
22290;DHT22;11313;50.116;8.424;2022-10-28T04:32:31;23.50;59.50
22290;DHT22;11313;50.116;8.424;2022-10-28T04:34:57;23.40;59.40
22290;DHT22;11313;50.116;8.424;2022-10-28T04:37:22;23.50;59.50
22290;DHT22;11313;50.116;8.424;2022-10-28T04:39:48;23.40;59.40
22290;DHT22;11313;50.116;8.424;2022-10-28T04:42:13;23.40;59.40
22290;DHT22;11313;50.116;8.424;2022-10-28T04:44:39;23.40;59.40
22290;DHT22;11313;50.116;8.424;2022-10-28T04:47:04;23.50;59.40
22290;DHT22;11313;50.116;8.424;2022-10-28T04:49:30;23.50;59.40
22290;DHT22;11313;50.116;8.424;2022-10-28T04:51:55;23.40;59.30
22290;DHT22;11313;50.116;8.424;2022-10-28T04:54:21;23.50;59.40
22290;DHT22;11313;50.116;8.424;2022-10-28T04:56:46;23.50;59.30
22290;DHT22;11313;50.116;8.424;2022-10-28T04:59:12;23.50;59.30
22290;DHT22;11313;50.116;8.424;2022-10-28T05:01:37;23.50;59.30
22290;DHT22;11313;50.116;8.424;2022-10-28T05:04:03;23.50;59.30
22290;DHT22;11313;50.116;8.424;2022-10-28T05:06:28;23.50;59.20
22290;DHT22;11313;50.116;8.424;2022-10-28T05:08:54;23.50;59.20
22290;DHT22;11313;50.116;8.424;2022-10-28T05:11:20;23.50;59.20
22290;DHT22;11313;50.116;8.424;2022-10-28T05:13:45;23.50;59.20
22290;DHT22;11313;50.116;8.424;2022-10-28T05:16:11;23.50;59.20
22290;DHT22;11313;50.116;8.424;2022-10-28T05:18:36;23.50;59.10
22290;DHT22;11313;50.116;8.424;2022-10-28T05:21:02;23.50;59.10
22290;DHT22;11313;50.116;8.424;2022-10-28T05:23:27;23.50;59.20
22290;DHT22;11313;50.116;8.424;2022-10-28T05:25:53;23.50;59.20
22290;DHT22;11313;50.116;8.424;2022-10-28T05:28:18;23.60;59.20
22290;DHT22;11313;50.116;8.424;2022-10-28T05:30:44;23.50;59.10
22290;DHT22;11313;50.116;8.424;2022-10-28T05:33:10;23.50;59.10
22290;DHT22;11313;50.116;8.424;2022-10-28T05:35:39;23.60;59.20
22290;DHT22;11313;50.116;8.424;2022-10-28T05:38:05;23.60;59.10
22290;DHT22;11313;50.116;8.424;2022-10-28T05:40:31;23.60;59.10
22290;DHT22;11313;50.116;8.424;2022-10-28T05:43:00;23.60;59.10
22290;DHT22;11313;50.116;8.424;2022-10-28T05:45:25;23.60;59.10
22290;DHT22;11313;50.116;8.424;2022-10-28T05:47:51;23.60;59.70
22290;DHT22;11313;50.116;8.424;2022-10-28T05:50:17;23.60;59.00
22290;DHT22;11313;50.116;8.424;2022-10-28T05:52:49;23.60;59.00
22290;DHT22;11313;50.116;8.424;2022-10-28T05:55:15;23.60;59.00
22290;DHT22;11313;50.116;8.424;2022-10-28T05:57:44;23.60;59.00
22290;DHT22;11313;50.116;8.424;2022-10-28T06:00:10;23.60;59.00
22290;DHT22;11313;50.116;8.424;2022-10-28T06:02:36;23.60;59.00
22290;DHT22;11313;50.116;8.424;2022-10-28T06:05:02;23.60;59.00
22290;DHT22;11313;50.116;8.424;2022-10-28T06:07:28;23.60;59.00
22290;DHT22;11313;50.116;8.424;2022-10-28T06:09:53;23.60;59.00
22290;DHT22;11313;50.116;8.424;2022-10-28T06:12:19;23.60;59.00
22290;DHT22;11313;50.116;8.424;2022-10-28T06:14:44;23.60;59.00
22290;DHT22;11313;50.116;8.424;2022-10-28T06:17:10;23.60;58.90
22290;DHT22;11313;50.116;8.424;2022-10-28T06:19:35;23.60;58.90
22290;DHT22;11313;50.116;8.424;2022-10-28T06:22:01;23.60;58.90
22290;DHT22;11313;50.116;8.424;2022-10-28T06:24:26;23.60;58.90
22290;DHT22;11313;50.116;8.424;2022-10-28T06:26:52;23.60;58.90
22290;DHT22;11313;50.116;8.424;2022-10-28T06:29:17;23.60;58.90
22290;DHT22;11313;50.116;8.424;2022-10-28T06:31:43;23.60;58.90
22290;DHT22;11313;50.116;8.424;2022-10-28T06:34:09;23.60;58.90
22290;DHT22;11313;50.116;8.424;2022-10-28T06:36:35;23.60;58.90
22290;DHT22;11313;50.116;8.424;2022-10-28T06:39:01;23.60;58.90
22290;DHT22;11313;50.116;8.424;2022-10-28T06:41:26;23.60;58.90
22290;DHT22;11313;50.116;8.424;2022-10-28T06:43:52;23.60;58.80
22290;DHT22;11313;50.116;8.424;2022-10-28T06:46:17;23.60;58.90
22290;DHT22;11313;50.116;8.424;2022-10-28T06:48:43;23.60;58.80
22290;DHT22;11313;50.116;8.424;2022-10-28T06:51:09;23.60;58.80
22290;DHT22;11313;50.116;8.424;2022-10-28T06:53:34;23.60;58.80
22290;DHT22;11313;50.116;8.424;2022-10-28T06:56:00;23.60;58.80
22290;DHT22;11313;50.116;8.424;2022-10-28T06:58:25;23.60;58.80
22290;DHT22;11313;50.116;8.424;2022-10-28T07:00:51;23.60;58.90
22290;DHT22;11313;50.116;8.424;2022-10-28T07:03:17;23.60;58.90
22290;DHT22;11313;50.116;8.424;2022-10-28T07:05:43;23.60;58.80
22290;DHT22;11313;50.116;8.424;2022-10-28T07:08:09;23.50;58.80
22290;DHT22;11313;50.116;8.424;2022-10-28T07:10:34;23.50;58.80
22290;DHT22;11313;50.116;8.424;2022-10-28T07:13:00;23.60;59.50
22290;DHT22;11313;50.116;8.424;2022-10-28T07:15:25;23.50;58.80
22290;DHT22;11313;50.116;8.424;2022-10-28T07:17:53;23.60;58.80
22290;DHT22;11313;50.116;8.424;2022-10-28T07:20:18;23.50;58.80
22290;DHT22;11313;50.116;8.424;2022-10-28T07:22:44;23.50;58.80
22290;DHT22;11313;50.116;8.424;2022-10-28T07:25:09;23.50;58.80
22290;DHT22;11313;50.116;8.424;2022-10-28T07:27:35;23.50;58.80
22290;DHT22;11313;50.116;8.424;2022-10-28T07:30:00;23.60;58.80
22290;DHT22;11313;50.116;8.424;2022-10-28T07:32:30;23.60;58.80
22290;DHT22;11313;50.116;8.424;2022-10-28T07:34:56;23.60;58.80
22290;DHT22;11313;50.116;8.424;2022-10-28T07:37:21;23.60;58.80
22290;DHT22;11313;50.116;8.424;2022-10-28T07:39:47;23.50;58.80
22290;DHT22;11313;50.116;8.424;2022-10-28T07:42:12;23.50;58.80
22290;DHT22;11313;50.116;8.424;2022-10-28T07:44:38;23.50;58.80
22290;DHT22;11313;50.116;8.424;2022-10-28T07:47:04;23.50;58.80
22290;DHT22;11313;50.116;8.424;2022-10-28T07:49:29;23.50;58.80
22290;DHT22;11313;50.116;8.424;2022-10-28T07:51:55;23.50;58.80
22290;DHT22;11313;50.116;8.424;2022-10-28T07:54:20;23.50;58.90
22290;DHT22;11313;50.116;8.424;2022-10-28T07:56:46;23.50;58.80
22290;DHT22;11313;50.116;8.424;2022-10-28T07:59:11;23.60;58.90
22290;DHT22;11313;50.116;8.424;2022-10-28T08:01:37;23.50;58.80
22290;DHT22;11313;50.116;8.424;2022-10-28T08:04:03;23.50;58.80
22290;DHT22;11313;50.116;8.424;2022-10-28T08:06:28;23.50;58.90
22290;DHT22;11313;50.116;8.424;2022-10-28T08:08:55;23.50;58.90
22290;DHT22;11313;50.116;8.424;2022-10-28T08:11:22;23.50;58.90
22290;DHT22;11313;50.116;8.424;2022-10-28T08:13:49;23.50;58.90
22290;DHT22;11313;50.116;8.424;2022-10-28T08:16:15;23.50;58.90
22290;DHT22;11313;50.116;8.424;2022-10-28T08:18:41;23.50;58.90
22290;DHT22;11313;50.116;8.424;2022-10-28T08:21:09;23.50;58.90
22290;DHT22;11313;50.116;8.424;2022-10-28T08:23:35;23.50;58.90
22290;DHT22;11313;50.116;8.424;2022-10-28T08:26:02;23.50;58.90
22290;DHT22;11313;50.116;8.424;2022-10-28T08:28:28;23.50;58.90
22290;DHT22;11313;50.116;8.424;2022-10-28T08:30:59;23.50;58.90
22290;DHT22;11313;50.116;8.424;2022-10-28T08:33:25;23.50;58.90
22290;DHT22;11313;50.116;8.424;2022-10-28T08:35:51;23.50;58.90
22290;DHT22;11313;50.116;8.424;2022-10-28T08:38:17;23.50;58.90
22290;DHT22;11313;50.116;8.424;2022-10-28T08:43:38;23.50;58.90
22290;DHT22;11313;50.116;8.424;2022-10-28T08:46:27;23.50;59.00
22290;DHT22;11313;50.116;8.424;2022-10-28T08:48:55;23.50;58.90
22290;DHT22;11313;50.116;8.424;2022-10-28T08:51:33;23.50;58.90
22290;DHT22;11313;50.116;8.424;2022-10-28T08:54:04;23.50;58.90
22290;DHT22;11313;50.116;8.424;2022-10-28T08:56:34;23.50;59.00
22290;DHT22;11313;50.116;8.424;2022-10-28T08:59:05;23.40;58.80
22290;DHT22;11313;50.116;8.424;2022-10-28T09:01:41;23.50;58.90
22290;DHT22;11313;50.116;8.424;2022-10-28T09:04:42;23.50;59.00
22290;DHT22;11313;50.116;8.424;2022-10-28T09:07:15;23.50;58.90
22290;DHT22;11313;50.116;8.424;2022-10-28T09:09:43;23.50;59.00
22290;DHT22;11313;50.116;8.424;2022-10-28T09:17:49;23.50;58.90
22290;DHT22;11313;50.116;8.424;2022-10-28T09:22:56;23.40;58.90
22290;DHT22;11313;50.116;8.424;2022-10-28T09:31:13;23.50;59.00
22290;DHT22;11313;50.116;8.424;2022-10-28T09:33:57;23.50;59.00
22290;DHT22;11313;50.116;8.424;2022-10-28T09:36:48;23.50;59.00
22290;DHT22;11313;50.116;8.424;2022-10-28T09:39:19;23.50;59.00
22290;DHT22;11313;50.116;8.424;2022-10-28T09:41:48;23.40;58.90
22290;DHT22;11313;50.116;8.424;2022-10-28T09:44:18;23.40;58.90
22290;DHT22;11313;50.116;8.424;2022-10-28T09:46:51;23.40;58.90
22290;DHT22;11313;50.116;8.424;2022-10-28T09:49:21;23.50;59.00
22290;DHT22;11313;50.116;8.424;2022-10-28T09:51:56;23.40;58.90
22290;DHT22;11313;50.116;8.424;2022-10-28T09:54:48;23.50;59.00
22290;DHT22;11313;50.116;8.424;2022-10-28T09:57:15;23.40;58.90
22290;DHT22;11313;50.116;8.424;2022-10-28T09:59:40;23.50;59.10
22290;DHT22;11313;50.116;8.424;2022-10-28T10:02:24;23.40;59.00
22290;DHT22;11313;50.116;8.424;2022-10-28T10:04:51;23.40;59.00
22290;DHT22;11313;50.116;8.424;2022-10-28T10:08:06;23.40;59.00
22290;DHT22;11313;50.116;8.424;2022-10-28T10:10:16;23.40;59.00
22290;DHT22;11313;50.116;8.424;2022-10-28T10:12:42;23.40;59.00
22290;DHT22;11313;50.116;8.424;2022-10-28T10:15:14;23.40;59.00
22290;DHT22;11313;50.116;8.424;2022-10-28T10:17:43;23.40;59.00
22290;DHT22;11313;50.116;8.424;2022-10-28T10:20:12;23.40;59.00
22290;DHT22;11313;50.116;8.424;2022-10-28T10:22:40;23.40;59.00
22290;DHT22;11313;50.116;8.424;2022-10-28T10:30:35;23.40;59.00
22290;DHT22;11313;50.116;8.424;2022-10-28T10:33:02;23.40;59.00
22290;DHT22;11313;50.116;8.424;2022-10-28T10:35:36;23.40;59.00
22290;DHT22;11313;50.116;8.424;2022-10-28T10:38:04;23.40;59.00
22290;DHT22;11313;50.116;8.424;2022-10-28T10:40:33;23.40;59.00
22290;DHT22;11313;50.116;8.424;2022-10-28T10:46:12;23.40;59.00
22290;DHT22;11313;50.116;8.424;2022-10-28T10:48:39;23.40;59.10
22290;DHT22;11313;50.116;8.424;2022-10-28T10:51:24;23.40;59.10
22290;DHT22;11313;50.116;8.424;2022-10-28T10:53:54;23.40;59.00
22290;DHT22;11313;50.116;8.424;2022-10-28T10:56:27;23.40;59.10
22290;DHT22;11313;50.116;8.424;2022-10-28T10:58:56;23.40;59.10
22290;DHT22;11313;50.116;8.424;2022-10-28T11:01:25;23.40;59.10
22290;DHT22;11313;50.116;8.424;2022-10-28T11:03:58;23.40;59.20
22290;DHT22;11313;50.116;8.424;2022-10-28T11:06:29;23.40;59.10
22290;DHT22;11313;50.116;8.424;2022-10-28T11:09:31;23.40;59.10
22290;DHT22;11313;50.116;8.424;2022-10-28T11:11:58;23.40;59.10
22290;DHT22;11313;50.116;8.424;2022-10-28T11:14:26;23.40;59.10
22290;DHT22;11313;50.116;8.424;2022-10-28T11:16:54;23.40;59.20
22290;DHT22;11313;50.116;8.424;2022-10-28T11:19:34;23.40;59.20
22290;DHT22;11313;50.116;8.424;2022-10-28T11:22:42;23.40;59.20
22290;DHT22;11313;50.116;8.424;2022-10-28T11:30:21;23.40;59.20
22290;DHT22;11313;50.116;8.424;2022-10-28T11:33:06;23.40;59.10
22290;DHT22;11313;50.116;8.424;2022-10-28T11:41:19;23.40;59.10
22290;DHT22;11313;50.116;8.424;2022-10-28T11:43:53;23.40;59.10
22290;DHT22;11313;50.116;8.424;2022-10-28T11:46:47;23.40;59.10
22290;DHT22;11313;50.116;8.424;2022-10-28T11:55:02;23.50;59.20
22290;DHT22;11313;50.116;8.424;2022-10-28T11:58:08;23.40;59.10
22290;DHT22;11313;50.116;8.424;2022-10-28T12:00:50;23.40;59.10
22290;DHT22;11313;50.116;8.424;2022-10-28T12:03:38;23.40;59.10
22290;DHT22;11313;50.116;8.424;2022-10-28T12:06:14;23.40;59.00
22290;DHT22;11313;50.116;8.424;2022-10-28T12:11:57;23.40;59.10
22290;DHT22;11313;50.116;8.424;2022-10-28T12:17:18;23.40;59.10
22290;DHT22;11313;50.116;8.424;2022-10-28T12:19:52;23.40;59.10
22290;DHT22;11313;50.116;8.424;2022-10-28T12:22:32;23.40;59.70
22290;DHT22;11313;50.116;8.424;2022-10-28T12:25:06;23.40;59.10
22290;DHT22;11313;50.116;8.424;2022-10-28T12:27:36;23.40;59.10
22290;DHT22;11313;50.116;8.424;2022-10-28T12:30:37;23.50;59.20
22290;DHT22;11313;50.116;8.424;2022-10-28T12:33:21;23.40;59.10
22290;DHT22;11313;50.116;8.424;2022-10-28T12:38:32;23.40;59.10
22290;DHT22;11313;50.116;8.424;2022-10-28T12:41:14;23.40;59.20
22290;DHT22;11313;50.116;8.424;2022-10-28T12:43:58;23.40;59.10
22290;DHT22;11313;50.116;8.424;2022-10-28T12:49:43;23.40;59.10
22290;DHT22;11313;50.116;8.424;2022-10-28T12:52:39;23.40;59.10
22290;DHT22;11313;50.116;8.424;2022-10-28T12:57:39;23.40;59.20
22290;DHT22;11313;50.116;8.424;2022-10-28T13:00:17;23.50;59.20
22290;DHT22;11313;50.116;8.424;2022-10-28T13:02:53;23.40;59.20
22290;DHT22;11313;50.116;8.424;2022-10-28T13:05:36;23.40;59.20
22290;DHT22;11313;50.116;8.424;2022-10-28T13:19:16;23.40;59.20
22290;DHT22;11313;50.116;8.424;2022-10-28T13:25:01;23.40;59.20
22290;DHT22;11313;50.116;8.424;2022-10-28T13:27:34;23.40;59.20
22290;DHT22;11313;50.116;8.424;2022-10-28T13:30:00;23.40;59.30
22290;DHT22;11313;50.116;8.424;2022-10-28T13:32:36;23.40;59.30
22290;DHT22;11313;50.116;8.424;2022-10-28T13:35:23;23.40;59.30
22290;DHT22;11313;50.116;8.424;2022-10-28T13:37:50;23.40;59.30
22290;DHT22;11313;50.116;8.424;2022-10-28T13:43:19;23.40;59.30
22290;DHT22;11313;50.116;8.424;2022-10-28T13:45:53;23.40;59.30
22290;DHT22;11313;50.116;8.424;2022-10-28T13:53:39;23.40;59.30
22290;DHT22;11313;50.116;8.424;2022-10-28T13:56:28;23.40;59.30
22290;DHT22;11313;50.116;8.424;2022-10-28T13:59:02;23.40;59.30
22290;DHT22;11313;50.116;8.424;2022-10-28T14:01:51;23.40;59.30
22290;DHT22;11313;50.116;8.424;2022-10-28T14:04:33;23.40;59.30
22290;DHT22;11313;50.116;8.424;2022-10-28T14:09:35;23.40;59.40
22290;DHT22;11313;50.116;8.424;2022-10-28T14:12:23;23.40;59.40
22290;DHT22;11313;50.116;8.424;2022-10-28T14:15:05;23.40;59.40
22290;DHT22;11313;50.116;8.424;2022-10-28T14:17:46;23.40;59.30
22290;DHT22;11313;50.116;8.424;2022-10-28T14:20:32;23.40;59.40
22290;DHT22;11313;50.116;8.424;2022-10-28T14:22:59;23.40;59.40
22290;DHT22;11313;50.116;8.424;2022-10-28T14:25:58;23.40;59.40
22290;DHT22;11313;50.116;8.424;2022-10-28T14:50:25;23.40;59.40
22290;DHT22;11313;50.116;8.424;2022-10-28T14:52:53;23.40;59.50
22290;DHT22;11313;50.116;8.424;2022-10-28T14:55:24;23.40;59.50
22290;DHT22;11313;50.116;8.424;2022-10-28T14:57:50;23.40;59.40
22290;DHT22;11313;50.116;8.424;2022-10-28T15:00:19;23.40;59.50
22290;DHT22;11313;50.116;8.424;2022-10-28T15:02:46;23.40;59.50
22290;DHT22;11313;50.116;8.424;2022-10-28T15:05:20;23.40;59.50
22290;DHT22;11313;50.116;8.424;2022-10-28T15:07:46;23.40;59.50
22290;DHT22;11313;50.116;8.424;2022-10-28T15:10:30;23.40;59.50
22290;DHT22;11313;50.116;8.424;2022-10-28T15:12:59;23.40;59.50
22290;DHT22;11313;50.116;8.424;2022-10-28T15:15:27;23.40;59.50
22290;DHT22;11313;50.116;8.424;2022-10-28T15:17:53;23.40;59.50
22290;DHT22;11313;50.116;8.424;2022-10-28T15:20:25;23.40;59.50
22290;DHT22;11313;50.116;8.424;2022-10-28T15:22:53;23.40;59.50
22290;DHT22;11313;50.116;8.424;2022-10-28T15:25:21;23.40;59.50
22290;DHT22;11313;50.116;8.424;2022-10-28T15:27:49;23.40;59.50
22290;DHT22;11313;50.116;8.424;2022-10-28T15:30:24;23.40;59.50
22290;DHT22;11313;50.116;8.424;2022-10-28T15:32:54;23.40;59.50
22290;DHT22;11313;50.116;8.424;2022-10-28T15:35:39;23.40;59.50
22290;DHT22;11313;50.116;8.424;2022-10-28T15:38:32;23.40;59.50
22290;DHT22;11313;50.116;8.424;2022-10-28T15:40:59;23.40;59.50
22290;DHT22;11313;50.116;8.424;2022-10-28T15:43:26;23.40;59.50
22290;DHT22;11313;50.116;8.424;2022-10-28T15:45:53;23.40;59.50
22290;DHT22;11313;50.116;8.424;2022-10-28T15:48:23;23.40;59.50
22290;DHT22;11313;50.116;8.424;2022-10-28T15:51:14;23.40;59.60
22290;DHT22;11313;50.116;8.424;2022-10-28T15:53:44;23.40;59.60
22290;DHT22;11313;50.116;8.424;2022-10-28T15:58:40;23.40;59.50
22290;DHT22;11313;50.116;8.424;2022-10-28T16:01:29;23.40;59.50
22290;DHT22;11313;50.116;8.424;2022-10-28T16:03:55;23.40;59.60
22290;DHT22;11313;50.116;8.424;2022-10-28T16:06:25;23.40;59.50
22290;DHT22;11313;50.116;8.424;2022-10-28T16:08:58;23.40;59.50
22290;DHT22;11313;50.116;8.424;2022-10-28T16:11:25;23.40;59.60
22290;DHT22;11313;50.116;8.424;2022-10-28T16:13:50;23.40;59.50
22290;DHT22;11313;50.116;8.424;2022-10-28T16:16:25;23.40;59.50
22290;DHT22;11313;50.116;8.424;2022-10-28T16:19:07;23.40;59.50
22290;DHT22;11313;50.116;8.424;2022-10-28T16:21:35;23.40;59.50
22290;DHT22;11313;50.116;8.424;2022-10-28T16:24:02;23.40;59.60
22290;DHT22;11313;50.116;8.424;2022-10-28T16:26:29;23.40;59.60
22290;DHT22;11313;50.116;8.424;2022-10-28T16:28:55;23.40;59.60
22290;DHT22;11313;50.116;8.424;2022-10-28T16:31:22;23.40;59.60
22290;DHT22;11313;50.116;8.424;2022-10-28T16:33:49;23.40;59.60
22290;DHT22;11313;50.116;8.424;2022-10-28T16:36:15;23.30;59.50
22290;DHT22;11313;50.116;8.424;2022-10-28T16:38:40;23.40;59.60
22290;DHT22;11313;50.116;8.424;2022-10-28T16:41:15;23.40;59.60
22290;DHT22;11313;50.116;8.424;2022-10-28T16:43:41;23.40;59.60
22290;DHT22;11313;50.116;8.424;2022-10-28T16:46:12;23.40;59.60
22290;DHT22;11313;50.116;8.424;2022-10-28T16:48:39;23.40;59.60
22290;DHT22;11313;50.116;8.424;2022-10-28T16:51:18;23.40;59.60
22290;DHT22;11313;50.116;8.424;2022-10-28T16:53:44;23.40;59.60
22290;DHT22;11313;50.116;8.424;2022-10-28T16:56:15;23.30;59.50
22290;DHT22;11313;50.116;8.424;2022-10-28T16:58:41;23.40;59.60
22290;DHT22;11313;50.116;8.424;2022-10-28T17:01:08;23.40;59.60
22290;DHT22;11313;50.116;8.424;2022-10-28T17:03:34;23.30;59.60
22290;DHT22;11313;50.116;8.424;2022-10-28T17:05:59;23.30;59.60
22290;DHT22;11313;50.116;8.424;2022-10-28T17:08:24;23.30;59.60
22290;DHT22;11313;50.116;8.424;2022-10-28T17:10:50;23.40;59.60
22290;DHT22;11313;50.116;8.424;2022-10-28T17:13:15;23.40;59.60
22290;DHT22;11313;50.116;8.424;2022-10-28T17:15:42;23.30;59.60
22290;DHT22;11313;50.116;8.424;2022-10-28T17:18:10;23.40;59.60
22290;DHT22;11313;50.116;8.424;2022-10-28T17:20:36;23.40;59.60
22290;DHT22;11313;50.116;8.424;2022-10-28T17:23:03;23.40;59.60
22290;DHT22;11313;50.116;8.424;2022-10-28T17:25:29;23.30;59.60
22290;DHT22;11313;50.116;8.424;2022-10-28T17:27:55;23.30;59.60
22290;DHT22;11313;50.116;8.424;2022-10-28T17:30:21;23.40;59.60
22290;DHT22;11313;50.116;8.424;2022-10-28T17:32:51;23.30;59.60
22290;DHT22;11313;50.116;8.424;2022-10-28T17:35:18;23.30;59.60
22290;DHT22;11313;50.116;8.424;2022-10-28T17:37:44;23.30;59.60
22290;DHT22;11313;50.116;8.424;2022-10-28T17:40:09;23.30;59.60
22290;DHT22;11313;50.116;8.424;2022-10-28T17:42:36;23.30;59.60
22290;DHT22;11313;50.116;8.424;2022-10-28T17:45:02;23.30;59.60
22290;DHT22;11313;50.116;8.424;2022-10-28T17:47:28;23.30;59.60
22290;DHT22;11313;50.116;8.424;2022-10-28T17:49:53;23.30;59.60
22290;DHT22;11313;50.116;8.424;2022-10-28T17:52:19;23.30;59.60
22290;DHT22;11313;50.116;8.424;2022-10-28T17:54:44;23.30;59.60
22290;DHT22;11313;50.116;8.424;2022-10-28T17:57:10;23.30;59.60
22290;DHT22;11313;50.116;8.424;2022-10-28T17:59:36;23.30;59.60
22290;DHT22;11313;50.116;8.424;2022-10-28T18:02:01;23.30;59.60
22290;DHT22;11313;50.116;8.424;2022-10-28T18:04:27;23.30;59.60
22290;DHT22;11313;50.116;8.424;2022-10-28T18:06:55;23.30;59.60
22290;DHT22;11313;50.116;8.424;2022-10-28T18:09:21;23.30;59.60
22290;DHT22;11313;50.116;8.424;2022-10-28T18:11:48;23.40;59.70
22290;DHT22;11313;50.116;8.424;2022-10-28T18:14:15;23.40;59.60